This is the latest recevied weather packets stored in our database for station/object YO8PIC-5. If no packets are shown the sender has not sent any weather packets the latest 10 day(s).
| Time | Temp. | Humidity | Pressure | Rain* | Wind** | Luminosity | Snow |
|---|---|---|---|---|---|---|---|
| 1777583515 | -1.11° C | 63% | 1025.4 hPa | - | - | - | - |
| 1777582615 | -2.22° C | 68% | 1025.4 hPa | - | - | - | - |
| 1777581715 | -2.22° C | 69% | 1025.4 hPa | - | - | - | - |
| 1777580815 | -1.67° C | 63% | 1025.3 hPa | - | - | - | - |
| 1777579914 | -1.11° C | 60% | 1025.2 hPa | - | - | - | - |
| 1777579014 | 0° C | 55% | 1025.1 hPa | - | - | - | - |
| 1777578114 | 0.56° C | 54% | 1025.1 hPa | - | - | - | - |
| 1777577214 | 1.11° C | 50% | 1025 hPa | - | - | - | - |
| 1777576314 | 1.11° C | 48% | 1025 hPa | - | - | - | - |
| 1777575413 | 1.67° C | 50% | 1024.9 hPa | - | - | - | - |
| 1777574513 | 1.67° C | 48% | 1024.8 hPa | - | - | - | - |
| 1777573619 | 2.22° C | 45% | 1024.6 hPa | - | - | - | - |
| 1777572719 | 2.78° C | 42% | 1024.5 hPa | - | - | - | - |
| 1777571818 | 3.33° C | 43% | 1024.4 hPa | - | - | - | - |
| 1777570918 | 3.33° C | 45% | 1024.3 hPa | - | - | - | - |
| 1777570018 | 3.89° C | 40% | 1024.2 hPa | - | - | - | - |
| 1777569118 | 4.44° C | 38% | 1024 hPa | - | - | - | - |
| 1777568218 | 5° C | 40% | 1023.9 hPa | - | - | - | - |
| 1777567317 | 6.67° C | 33% | 1023.8 hPa | - | - | - | - |
| 1777566417 | 7.22° C | 32% | 1023.8 hPa | - | - | - | - |
| 1777565517 | 7.78° C | 30% | 1023.6 hPa | - | - | - | - |
| 1777564616 | 8.89° C | 29% | 1023.6 hPa | - | - | - | - |
| 1777563716 | 8.33° C | 28% | 1023.6 hPa | - | - | - | - |
| 1777562816 | 7.78° C | 28% | 1023.6 hPa | - | - | - | - |
| 1777561916 | 8.89° C | 29% | 1023.6 hPa | - | - | - | - |
* Rain since midnight (hover to see other rain measurements)
** Current wind speed in m/s (hover to see current wind gust speed)